createdAt,value
2018-11-13T00:04:16.758Z,18.40
2018-11-13T00:09:20.827Z,18.43
2018-11-13T00:14:24.787Z,20.40
2018-11-13T00:19:29.190Z,19.47
2018-11-13T00:24:33.010Z,19.17
2018-11-13T00:29:37.478Z,19.00
2018-11-13T00:34:41.533Z,18.70
2018-11-13T00:39:45.781Z,19.30
2018-11-13T00:44:49.606Z,19.57
2018-11-13T00:49:53.649Z,20.70
2018-11-13T00:54:57.547Z,19.37
2018-11-13T01:00:01.655Z,19.67
2018-11-13T01:05:07.517Z,18.77
2018-11-13T01:10:12.973Z,18.60
2018-11-13T01:15:18.159Z,18.57
2018-11-13T01:20:22.093Z,18.93
2018-11-13T01:25:25.704Z,17.30
2018-11-13T01:30:29.403Z,17.60
2018-11-13T01:35:33.346Z,17.30
2018-11-13T01:40:37.065Z,18.03
2018-11-13T01:45:40.721Z,18.30
2018-11-13T01:50:49.038Z,19.30
2018-11-13T01:55:53.090Z,19.00
2018-11-13T02:00:56.865Z,18.63
2018-11-13T02:06:00.978Z,18.80
2018-11-13T02:11:05.273Z,16.83
2018-11-13T02:16:09.469Z,17.07
2018-11-13T02:21:13.649Z,17.07
2018-11-13T02:26:17.726Z,16.40
2018-11-13T02:31:21.676Z,15.90
2018-11-13T02:36:25.495Z,17.20
2018-11-13T02:41:30.062Z,16.83
2018-11-13T02:46:34.179Z,17.97
2018-11-13T02:51:38.007Z,16.87
2018-11-13T02:56:41.976Z,16.80
2018-11-13T03:01:45.774Z,16.97
2018-11-13T03:06:49.560Z,16.17
2018-11-13T03:11:53.901Z,16.10
2018-11-13T03:16:57.576Z,15.63
2018-11-13T03:22:01.423Z,15.13
2018-11-13T03:27:05.828Z,14.87
2018-11-13T03:32:09.939Z,15.83
2018-11-13T03:37:14.096Z,16.63
2018-11-13T03:42:18.227Z,16.20
2018-11-13T03:47:22.084Z,17.70
2018-11-13T03:52:26.321Z,17.47
2018-11-13T03:57:30.817Z,18.23
2018-11-13T04:02:34.559Z,17.37
2018-11-13T04:07:45.385Z,18.00
2018-11-13T04:12:49.740Z,17.37
2018-11-13T04:17:54.368Z,17.10
2018-11-13T04:23:00.194Z,16.13
2018-11-13T04:28:03.971Z,13.97
2018-11-13T04:33:08.248Z,13.20
2018-11-13T04:38:12.224Z,12.27
2018-11-13T04:43:15.878Z,11.87
2018-11-13T04:48:20.668Z,9.73
2018-11-13T04:53:24.756Z,8.53
2018-11-13T04:58:28.944Z,9.00
2018-11-13T05:03:32.698Z,7.57
2018-11-13T05:08:36.662Z,7.10
2018-11-13T05:13:40.558Z,6.07
2018-11-13T05:18:44.352Z,5.60
2018-11-13T05:23:49.117Z,4.97
2018-11-13T05:28:53.318Z,4.93
2018-11-13T05:33:57.151Z,4.87
2018-11-13T05:39:00.994Z,4.63
2018-11-13T05:44:05.030Z,4.47
2018-11-13T05:49:08.806Z,4.20
2018-11-13T05:54:12.725Z,3.40
2018-11-13T05:59:16.357Z,3.73
2018-11-13T06:04:20.322Z,3.57
2018-11-13T06:09:23.996Z,3.47
2018-11-13T06:14:27.667Z,5.10
2018-11-13T06:19:31.520Z,4.20
2018-11-13T06:24:35.189Z,4.10
2018-11-13T06:29:38.940Z,6.57
2018-11-13T06:34:42.630Z,3.77
2018-11-13T06:39:46.333Z,3.57
2018-11-13T06:44:50.411Z,3.27
2018-11-13T06:49:54.109Z,5.90
2018-11-13T06:55:04.904Z,7.30
2018-11-13T07:00:09.735Z,3.80
2018-11-13T07:05:14.955Z,4.03
2018-11-13T07:10:19.940Z,3.67
2018-11-13T07:15:25.165Z,3.47
2018-11-13T07:20:30.554Z,3.10
2018-11-13T07:25:34.249Z,3.10
2018-11-13T07:30:37.818Z,3.10
2018-11-13T07:35:42.129Z,3.90
2018-11-13T07:40:46.055Z,2.70
2018-11-13T07:45:49.734Z,3.03
2018-11-13T07:50:53.395Z,2.90
2018-11-13T07:55:57.076Z,3.40
2018-11-13T08:01:00.870Z,3.60
2018-11-13T08:06:05.517Z,3.50
2018-11-13T08:11:09.313Z,3.27
2018-11-13T08:16:13.329Z,3.90
2018-11-13T08:21:16.951Z,3.60
2018-11-13T08:26:20.827Z,3.93
2018-11-13T08:31:24.470Z,3.47
2018-11-13T08:36:28.127Z,3.40
2018-11-13T08:41:32.069Z,3.57
2018-11-13T08:46:36.062Z,3.70
2018-11-13T08:51:39.912Z,3.30
2018-11-13T08:56:44.014Z,4.97
2018-11-13T09:01:47.860Z,3.93
2018-11-13T09:06:51.691Z,3.40
2018-11-13T09:11:55.553Z,3.30
2018-11-13T09:16:59.170Z,3.60
2018-11-13T09:22:03.114Z,3.53
2018-11-13T09:27:06.989Z,3.90
2018-11-13T09:32:10.713Z,4.00
2018-11-13T09:37:16.454Z,3.13
2018-11-13T09:42:20.157Z,3.70
2018-11-13T09:47:23.717Z,3.13
2018-11-13T09:52:27.455Z,3.87
2018-11-13T09:57:31.056Z,3.10
2018-11-13T10:02:35.648Z,3.13
2018-11-13T10:07:39.199Z,3.13
2018-11-13T10:12:42.926Z,2.77
2018-11-13T10:17:46.745Z,2.50
2018-11-13T10:22:51.563Z,2.30
2018-11-13T10:27:55.802Z,2.77
2018-11-13T10:32:59.737Z,2.70
2018-11-13T10:38:04.081Z,2.87
2018-11-13T10:43:08.042Z,2.40
2018-11-13T10:48:11.596Z,2.60
2018-11-13T10:53:15.401Z,4.33
2018-11-13T10:58:19.443Z,2.50
2018-11-13T11:03:28.290Z,2.50
2018-11-13T11:08:31.931Z,2.07
2018-11-13T11:13:35.960Z,2.37
2018-11-13T11:18:39.776Z,2.30
2018-11-13T11:23:43.617Z,1.53
2018-11-13T11:28:47.745Z,1.83
2018-11-13T11:33:51.899Z,1.90
2018-11-13T11:38:56.119Z,2.17
2018-11-13T11:44:00.063Z,1.70
2018-11-13T11:49:04.173Z,1.73
2018-11-13T11:54:07.853Z,3.90
2018-11-13T11:59:11.561Z,2.27
2018-11-13T12:04:15.229Z,1.97
2018-11-13T12:09:18.927Z,2.03
2018-11-13T12:14:22.908Z,1.80
2018-11-13T12:19:26.444Z,1.67
2018-11-13T12:24:30.241Z,1.93
2018-11-13T12:29:34.301Z,1.70
2018-11-13T12:34:38.189Z,1.63
2018-11-13T12:39:42.489Z,1.70
2018-11-13T12:44:46.245Z,1.73
2018-11-13T12:49:50.828Z,1.50
2018-11-13T12:54:55.179Z,1.97
2018-11-13T12:59:58.809Z,1.40
2018-11-13T13:05:02.617Z,1.60
2018-11-13T13:10:08.688Z,1.53
2018-11-13T13:15:14.349Z,1.30
2018-11-13T13:20:21.031Z,1.67
2018-11-13T13:25:25.187Z,1.53
2018-11-13T13:30:29.186Z,1.50
2018-11-13T13:35:39.340Z,1.77
2018-11-13T13:40:44.195Z,1.50
2018-11-13T13:45:48.634Z,1.53
2018-11-13T13:50:53.401Z,1.40
2018-11-13T13:55:57.517Z,1.47
2018-11-13T14:01:01.423Z,1.30
2018-11-13T14:06:05.074Z,1.30
2018-11-13T14:11:09.076Z,1.60
2018-11-13T14:16:12.953Z,1.87
2018-11-13T14:21:16.499Z,1.20
2018-11-13T14:26:20.030Z,1.90
2018-11-13T14:31:24.113Z,1.30
2018-11-13T14:36:34.222Z,1.70
2018-11-13T14:41:38.411Z,1.73
2018-11-13T14:46:42.767Z,1.60
2018-11-13T14:51:46.389Z,1.63
2018-11-13T14:56:50.136Z,2.07
2018-11-13T15:01:54.182Z,1.40
2018-11-13T15:06:58.113Z,1.60
2018-11-13T15:12:01.872Z,1.40
2018-11-13T15:17:05.895Z,1.40
2018-11-13T15:22:10.318Z,1.70
2018-11-13T15:27:13.951Z,1.67
2018-11-13T15:32:18.294Z,2.10
2018-11-13T15:37:22.002Z,1.83
2018-11-13T15:42:26.039Z,1.67
2018-11-13T15:47:30.131Z,1.70
2018-11-13T15:52:33.865Z,1.63
2018-11-13T15:57:38.665Z,1.90
2018-11-13T16:02:42.972Z,2.27
2018-11-13T16:07:46.661Z,2.50
2018-11-13T16:12:50.441Z,2.03
2018-11-13T16:17:55.252Z,1.93
2018-11-13T16:22:59.818Z,2.43
2018-11-13T16:28:03.554Z,2.20
2018-11-13T16:33:07.650Z,2.37
2018-11-13T16:38:12.228Z,2.27
2018-11-13T16:43:15.946Z,2.73
2018-11-13T16:48:20.418Z,2.30
2018-11-13T16:53:24.198Z,2.07
2018-11-13T16:58:28.101Z,2.50
2018-11-13T17:03:32.130Z,2.60
2018-11-13T17:08:36.416Z,2.33
2018-11-13T17:13:40.073Z,2.40
2018-11-13T17:18:43.735Z,2.60
2018-11-13T17:23:47.723Z,2.50
2018-11-13T17:28:51.414Z,2.10
2018-11-13T17:33:55.554Z,2.63
2018-11-13T17:38:59.430Z,2.80
2018-11-13T17:44:04.115Z,2.73
2018-11-13T17:49:07.746Z,2.60
2018-11-13T17:54:11.549Z,3.20
2018-11-13T17:59:15.330Z,2.63
2018-11-13T18:04:19.065Z,2.77
2018-11-13T18:09:23.602Z,2.77
2018-11-13T18:14:27.497Z,3.17
2018-11-13T18:19:31.263Z,2.80
2018-11-13T18:24:34.942Z,3.03
2018-11-13T18:29:39.082Z,3.03
2018-11-13T18:34:43.102Z,3.47
2018-11-13T18:39:47.258Z,3.23
2018-11-13T18:44:51.027Z,3.30
2018-11-13T18:49:55.152Z,3.17
2018-11-13T18:54:59.442Z,3.90
2018-11-13T19:00:03.213Z,3.50
2018-11-13T19:05:07.509Z,3.40
2018-11-13T19:10:15.407Z,3.17
2018-11-13T19:15:35.234Z,3.33
2018-11-13T19:20:39.128Z,3.70
2018-11-13T19:25:44.794Z,3.40
2018-11-13T19:30:48.795Z,3.37
2018-11-13T19:35:52.612Z,3.30
2018-11-13T19:40:56.309Z,4.17
2018-11-13T19:46:00.437Z,4.03
2018-11-13T19:51:04.573Z,3.77
2018-11-13T19:56:08.185Z,3.40
2018-11-13T20:01:12.137Z,3.20
2018-11-13T20:06:15.942Z,3.30
2018-11-13T20:11:20.465Z,3.23
2018-11-13T20:16:24.965Z,2.70
2018-11-13T20:21:29.124Z,2.93
2018-11-13T20:26:33.366Z,3.47
2018-11-13T20:31:37.619Z,3.40
2018-11-13T20:36:41.719Z,3.13
2018-11-13T20:41:45.705Z,3.77
2018-11-13T20:52:23.349Z,3.87
2018-11-13T20:57:27.547Z,3.30
2018-11-13T21:08:09.519Z,3.13
2018-11-13T21:29:37.342Z,3.63
2018-11-13T21:51:07.037Z,3.30
2018-11-13T21:56:11.196Z,3.27
2018-11-13T22:01:15.426Z,3.50
2018-11-13T22:06:19.390Z,3.97
2018-11-13T22:11:23.372Z,3.80
2018-11-13T22:16:28.961Z,3.70
2018-11-13T22:21:32.824Z,3.70
2018-11-13T22:26:42.535Z,3.50
2018-11-13T22:31:46.614Z,3.17
2018-11-13T22:36:50.965Z,3.80
2018-11-13T22:41:56.272Z,3.27
2018-11-13T22:46:59.846Z,3.53
2018-11-13T23:08:27.362Z,3.67
2018-11-13T23:13:31.116Z,3.80
2018-11-13T23:18:34.865Z,3.60
2018-11-13T23:23:38.552Z,3.40
2018-11-13T23:28:42.624Z,4.10
2018-11-13T23:33:46.718Z,3.83
2018-11-13T23:38:50.596Z,3.33
2018-11-13T23:49:22.058Z,3.63
2018-11-13T23:54:25.964Z,3.90
2018-11-13T23:59:29.615Z,3.50
